Time;durP1;ratioP1;P1;durP2;ratioP2;P2;SDS_P1;SDS_P2;PMS_P1;PMS_P2;Temp;Humidity;BMP_temperature;BMP_pressure;BME280_temperature;BME280_humidity;BME280_pressure;Samples;Min_cycle;Max_cycle;Signal;HPM_P1;HPM_P2
2022/01/23 00:00:51;;;;;;;1.38;0.70;;;21.00;34.60;;;;;;5073321;28;20423;-71
2022/01/23 00:03:19;;;;;;;1.55;0.70;;;20.90;34.50;;;;;;5071510;28;20392;-65
2022/01/23 00:05:47;;;;;;;1.17;0.60;;;20.90;34.50;;;;;;5073118;28;20426;-65
2022/01/23 00:08:17;;;;;;;1.70;0.70;;;20.90;34.50;;;;;;5072969;28;20894;-65
2022/01/23 00:10:44;;;;;;;1.52;0.50;;;20.90;34.50;;;;;;5073041;28;20391;-65
2022/01/23 00:18:39;;;;;;;1.40;0.60;;;20.90;34.40;;;;;;5072943;28;20445;-65
2022/01/23 00:21:05;;;;;;;1.35;0.68;;;20.90;34.40;;;;;;5072469;28;20396;-64
2022/01/23 00:31:37;;;;;;;1.60;0.55;;;20.90;34.20;;;;;;5072982;28;20749;-65
2022/01/23 00:34:03;;;;;;;1.33;0.50;;;20.90;34.20;;;;;;5072542;28;20403;-65
2022/01/23 00:36:29;;;;;;;1.00;0.50;;;20.90;34.30;;;;;;5072571;28;20887;-65
2022/01/23 00:38:56;;;;;;;1.08;0.50;;;20.90;34.20;;;;;;5071194;28;20457;-65
2022/01/23 00:41:22;;;;;;;0.70;0.45;;;20.90;34.20;;;;;;5071928;28;20880;-71
2022/01/23 00:43:49;;;;;;;1.38;0.50;;;20.90;34.20;;;;;;5072341;28;20921;-65
2022/01/23 00:49:13;;;;;;;1.17;0.70;;;20.90;34.10;;;;;;5078302;28;20523;-65
2022/01/23 00:51:37;;;;;;;1.30;0.60;;;20.90;34.10;;;;;;5092110;28;20471;-65
2022/01/23 00:54:06;;;;;;;1.30;0.55;;;20.90;34.10;;;;;;5091182;28;20485;-65
2022/01/23 00:56:33;;;;;;;1.08;0.50;;;20.90;34.10;;;;;;5092258;28;20439;-65
2022/01/23 00:58:59;;;;;;;1.13;0.50;;;20.90;34.10;;;;;;5090785;28;20463;-67
2022/01/23 01:01:25;;;;;;;1.40;0.50;;;20.80;34.00;;;;;;5091936;28;20469;-68
2022/01/23 01:03:50;;;;;;;0.80;0.40;;;20.80;34.00;;;;;;5092285;28;20823;-64
2022/01/23 01:06:17;;;;;;;1.17;0.40;;;20.80;34.00;;;;;;5092177;28;20386;-64
2022/01/23 01:08:43;;;;;;;1.05;0.60;;;20.80;34.00;;;;;;5091973;28;20425;-65
2022/01/23 01:32:53;;;;;;;1.00;0.57;;;20.80;33.90;;;;;;5087891;28;20901;-64
2022/01/23 01:35:30;;;;;;;1.27;0.60;;;20.80;33.90;;;;;;5088248;28;20370;-64
2022/01/23 01:37:56;;;;;;;1.00;0.50;;;20.70;33.80;;;;;;5088027;28;20389;-65
2022/01/23 01:40:23;;;;;;;0.98;0.60;;;20.80;33.80;;;;;;5090106;28;20378;-64
2022/01/23 01:42:49;;;;;;;1.60;0.57;;;20.80;33.80;;;;;;5090103;28;20446;-65
2022/01/23 01:45:22;;;;;;;1.05;0.60;;;20.80;33.80;;;;;;5089314;28;20386;-68
2022/01/23 01:47:50;;;;;;;1.13;0.40;;;20.80;33.80;;;;;;5089693;28;20409;-66
2022/01/23 01:50:15;;;;;;;1.10;0.52;;;20.80;33.80;;;;;;5088802;28;20463;-64
2022/01/23 01:52:42;;;;;;;1.30;0.60;;;20.80;33.80;;;;;;5088255;28;20386;-64
2022/01/23 01:55:11;;;;;;;0.90;0.50;;;20.80;33.90;;;;;;5088787;28;20386;-64
2022/01/23 01:57:50;;;;;;;0.93;0.60;;;20.80;33.70;;;;;;5090282;28;20451;-64
2022/01/23 02:10:50;;;;;;;0.90;0.50;;;20.80;33.70;;;;;;5090220;28;20456;-64
2022/01/23 02:13:20;;;;;;;0.90;0.43;;;20.80;33.70;;;;;;5086078;28;20386;-64
2022/01/23 02:51:27;;;;;;;0.90;0.43;;;20.70;33.70;;;;;;5090982;28;20881;-64
2022/01/23 02:56:44;;;;;;;0.77;0.50;;;20.70;33.60;;;;;;5090951;28;20885;-64
2022/01/23 02:59:31;;;;;;;1.15;0.50;;;20.70;33.60;;;;;;5093628;28;20383;-64
2022/01/23 03:04:50;;;;;;;0.80;0.45;;;20.70;33.70;;;;;;5091329;28;20435;-74
2022/01/23 03:10:07;;;;;;;0.77;0.30;;;20.70;33.60;;;;;;5094654;28;20466;-70
2022/01/23 03:15:10;;;;;;;1.20;0.40;;;20.70;33.60;;;;;;5094159;28;20397;-65
2022/01/23 03:26:16;;;;;;;0.70;0.50;;;20.70;33.60;;;;;;5094456;28;20478;-65
2022/01/23 03:31:33;;;;;;;0.60;0.43;;;20.70;33.60;;;;;;5093741;28;20443;-65
2022/01/23 03:34:00;;;;;;;0.57;0.38;;;20.60;33.60;;;;;;5094031;28;20427;-69
2022/01/23 03:36:25;;;;;;;0.40;0.30;;;20.50;33.80;;;;;;5093972;28;20436;-65
2022/01/23 03:38:51;;;;;;;0.77;0.38;;;20.40;33.80;;;;;;5093943;28;20390;-69
2022/01/23 03:41:17;;;;;;;1.02;0.40;;;20.30;33.80;;;;;;5093602;28;20378;-65
2022/01/23 03:43:43;;;;;;;1.00;0.50;;;20.30;34.00;;;;;;5092136;28;20947;-65
2022/01/23 03:51:16;;;;;;;0.60;0.40;;;20.30;34.10;;;;;;5093619;28;20800;-65
2022/01/23 03:53:42;;;;;;;0.60;0.40;;;20.20;33.90;;;;;;5092111;28;20866;-73
2022/01/23 03:56:08;;;;;;;1.02;0.50;;;20.20;34.60;;;;;;5093666;28;20469;-69
2022/01/23 03:58:34;;;;;;;0.50;0.40;;;20.20;34.30;;;;;;5093580;28;20427;-65
2022/01/23 04:01:00;;;;;;;0.90;0.50;;;20.20;34.20;;;;;;5093293;28;20896;-71
2022/01/23 04:03:27;;;;;;;0.93;0.50;;;20.20;34.20;;;;;;5091716;28;20444;-68
2022/01/23 04:05:52;;;;;;;1.65;0.50;;;20.20;34.20;;;;;;5093383;28;20476;-71
2022/01/23 04:08:19;;;;;;;1.02;0.40;;;20.10;33.90;;;;;;5093286;28;20497;-64
2022/01/23 04:10:45;;;;;;;0.77;0.40;;;20.10;34.00;;;;;;5091890;28;20390;-69
2022/01/23 04:13:21;;;;;;;0.50;0.35;;;20.00;34.30;;;;;;5093228;28;20401;-70
2022/01/23 04:45:30;;;;;;;0.50;0.30;;;20.30;33.80;;;;;;5092733;28;20448;-70
2022/01/23 05:06:24;;;;;;;0.60;0.30;;;20.30;33.60;;;;;;5092468;28;20382;-65
2022/01/23 05:08:51;;;;;;;0.67;0.40;;;20.30;33.60;;;;;;5090811;28;20432;-71
2022/01/23 05:11:17;;;;;;;0.32;0.30;;;20.30;33.60;;;;;;5092259;28;20374;-66
2022/01/23 05:13:42;;;;;;;0.65;0.30;;;20.30;33.50;;;;;;5091859;28;20500;-71
2022/01/23 05:16:10;;;;;;;0.45;0.30;;;20.40;33.50;;;;;;5092160;28;20418;-71
2022/01/23 05:18:36;;;;;;;1.03;0.40;;;20.30;33.50;;;;;;5092045;28;20489;-65
2022/01/23 05:23:37;;;;;;;0.43;0.30;;;20.30;33.40;;;;;;5091472;28;20474;-64
2022/01/23 05:26:03;;;;;;;0.63;0.38;;;20.30;33.50;;;;;;5091990;28;20472;-64
2022/01/23 05:28:28;;;;;;;0.60;0.40;;;20.30;33.40;;;;;;5090682;28;20393;-64
2022/01/23 05:30:54;;;;;;;0.80;0.40;;;20.20;33.60;;;;;;5090532;28;20401;-66
2022/01/23 05:33:20;;;;;;;0.40;0.30;;;20.10;33.80;;;;;;5090078;28;20741;-65
2022/01/23 05:35:45;;;;;;;0.80;0.50;;;20.10;33.80;;;;;;5091511;28;20400;-68
2022/01/23 05:38:11;;;;;;;0.70;0.40;;;20.00;33.80;;;;;;5091796;28;20473;-66
2022/01/23 05:40:39;;;;;;;0.70;0.40;;;20.00;34.20;;;;;;5091544;28;20401;-65
2022/01/23 05:43:04;;;;;;;0.57;0.40;;;20.00;34.00;;;;;;5091727;28;20892;-64
2022/01/23 05:45:30;;;;;;;0.95;0.55;;;20.00;34.00;;;;;;5091285;28;20394;-64
2022/01/23 05:47:56;;;;;;;0.82;0.50;;;20.00;34.20;;;;;;5090244;28;20390;-66
2022/01/23 05:50:21;;;;;;;0.65;0.50;;;19.90;34.10;;;;;;5091623;28;20417;-66
2022/01/23 05:52:47;;;;;;;0.50;0.40;;;19.90;34.00;;;;;;5090358;28;20409;-67
2022/01/23 05:55:14;;;;;;;0.60;0.40;;;19.90;34.30;;;;;;5091557;28;20385;-65
2022/01/23 05:57:40;;;;;;;0.60;0.50;;;19.90;34.10;;;;;;5091000;28;20757;-65
2022/01/23 06:00:07;;;;;;;0.85;0.50;;;19.90;34.10;;;;;;5091547;28;20381;-71
2022/01/23 06:02:32;;;;;;;0.60;0.47;;;19.80;34.10;;;;;;5091582;28;20473;-65
2022/01/23 06:04:58;;;;;;;0.80;0.52;;;19.90;34.20;;;;;;5091103;28;20489;-64
2022/01/23 06:07:23;;;;;;;0.70;0.50;;;19.90;34.10;;;;;;5094229;28;20414;-64
2022/01/23 06:09:49;;;;;;;0.70;0.50;;;20.00;34.00;;;;;;5095348;28;20417;-68
2022/01/23 06:12:15;;;;;;;0.60;0.40;;;20.00;33.90;;;;;;5095715;28;20387;-67
2022/01/23 06:14:40;;;;;;;0.73;0.50;;;20.00;33.90;;;;;;5095503;28;20390;-64
2022/01/23 06:17:06;;;;;;;1.07;0.50;;;20.00;33.80;;;;;;5094313;28;20398;-69
2022/01/23 06:19:34;;;;;;;0.70;0.60;;;20.00;33.80;;;;;;5093743;28;20394;-64
2022/01/23 06:21:59;;;;;;;0.70;0.40;;;20.00;33.70;;;;;;5095461;28;20471;-65
2022/01/23 06:24:28;;;;;;;0.70;0.50;;;20.10;33.80;;;;;;5094143;28;20936;-64
2022/01/23 06:26:56;;;;;;;1.27;0.55;;;20.10;34.30;;;;;;5095348;28;20745;-68
2022/01/23 06:29:24;;;;;;;1.00;0.57;;;20.10;33.70;;;;;;5093711;28;20409;-64
2022/01/23 06:31:53;;;;;;;0.70;0.50;;;20.10;33.70;;;;;;5094678;28;20386;-64
2022/01/23 06:34:19;;;;;;;0.60;0.50;;;20.10;33.70;;;;;;5094015;28;20398;-68
2022/01/23 06:36:48;;;;;;;1.10;0.60;;;20.10;33.70;;;;;;5095161;28;20378;-68
2022/01/23 06:39:14;;;;;;;0.80;0.55;;;20.20;33.70;;;;;;5095054;28;20442;-65
2022/01/23 06:41:40;;;;;;;0.80;0.50;;;20.10;33.60;;;;;;5094611;28;20385;-64
2022/01/23 06:44:07;;;;;;;0.80;0.50;;;20.20;33.60;;;;;;5093801;28;20787;-65
2022/01/23 06:46:33;;;;;;;0.98;0.60;;;20.10;33.50;;;;;;5095162;28;20378;-64
2022/01/23 06:48:59;;;;;;;1.10;0.70;;;20.20;33.60;;;;;;5094607;28;20452;-65
2022/01/23 06:51:25;;;;;;;1.35;0.68;;;20.20;33.60;;;;;;5094756;28;20539;-67
2022/01/23 06:53:52;;;;;;;1.60;0.90;;;20.20;33.60;;;;;;5094539;28;20893;-65
2022/01/23 06:56:18;;;;;;;1.27;0.85;;;20.20;33.50;;;;;;5094931;28;20780;-65
2022/01/23 06:58:43;;;;;;;2.35;1.17;;;20.20;33.60;;;;;;5094691;28;20399;-64
2022/01/23 07:01:10;;;;;;;2.13;1.30;;;20.20;33.50;;;;;;5094624;28;20381;-65
2022/01/23 07:03:36;;;;;;;2.30;1.27;;;20.20;33.50;;;;;;5094096;28;20436;-65
2022/01/23 07:06:02;;;;;;;3.25;1.70;;;20.20;33.50;;;;;;5093352;28;20485;-67
2022/01/23 07:08:27;;;;;;;3.08;1.70;;;20.10;33.50;;;;;;5094218;28;20469;-67
2022/01/23 07:10:53;;;;;;;4.20;2.60;;;20.10;33.70;;;;;;5094373;28;20398;-65
2022/01/23 07:13:18;;;;;;;5.33;2.97;;;20.00;33.90;;;;;;5093009;28;20452;-64
2022/01/23 07:15:47;;;;;;;4.10;2.70;;;19.90;33.40;;;;;;5092559;28;20390;-64
2022/01/23 07:18:15;;;;;;;4.43;2.80;;;19.80;33.00;;;;;;5092714;28;20390;-63
2022/01/23 07:20:41;;;;;;;5.32;3.08;;;19.80;33.00;;;;;;5092950;28;20473;-63
2022/01/23 07:23:07;;;;;;;5.05;2.70;;;19.70;33.20;;;;;;5096398;28;20433;-64
2022/01/23 07:25:33;;;;;;;5.35;3.00;;;19.70;33.70;;;;;;5093747;28;20414;-64
2022/01/23 07:28:00;;;;;;;8.23;3.07;;;19.70;34.30;;;;;;5095039;28;20789;-64
2022/01/23 07:32:52;;;;;;;5.60;2.80;;;19.70;35.00;;;;;;5096060;28;20382;-64
2022/01/23 07:35:18;;;;;;;4.32;2.83;;;19.70;34.80;;;;;;5092996;28;20416;-63
2022/01/23 07:37:43;;;;;;;5.20;3.00;;;19.70;34.70;;;;;;5092383;28;20386;-63
2022/01/23 07:40:09;;;;;;;5.30;3.08;;;19.80;34.80;;;;;;5093141;28;20413;-73
2022/01/23 07:42:35;;;;;;;5.03;3.15;;;19.80;34.90;;;;;;5092354;28;20386;-69
2022/01/23 07:45:03;;;;;;;5.80;3.22;;;19.80;34.80;;;;;;5095994;28;20725;-64
2022/01/23 07:47:29;;;;;;;5.43;3.20;;;19.80;34.90;;;;;;5095582;28;20873;-69
2022/01/23 07:49:55;;;;;;;5.33;3.10;;;19.80;34.90;;;;;;5093459;28;20421;-67
2022/01/23 07:52:21;;;;;;;6.57;3.40;;;19.80;36.10;;;;;;5091079;28;20402;-63
2022/01/23 07:54:48;;;;;;;4.67;3.30;;;19.90;35.60;;;;;;5094161;28;20378;-63
2022/01/23 07:57:13;;;;;;;4.85;3.03;;;19.90;35.50;;;;;;5091022;28;20386;-64
2022/01/23 07:59:39;;;;;;;8.30;3.33;;;19.90;35.90;;;;;;5090941;28;20832;-63
2022/01/23 08:02:05;;;;;;;6.50;3.20;;;20.00;38.00;;;;;;5091267;28;20828;-71
2022/01/23 08:04:31;;;;;;;6.75;3.45;;;20.00;38.80;;;;;;5093017;28;20382;-64
2022/01/23 08:07:11;;;;;;;7.10;3.40;;;20.00;39.00;;;;;;5092561;28;20386;-67
2022/01/23 08:09:37;;;;;;;7.97;3.35;;;20.10;39.30;;;;;;5092616;28;20901;-64
2022/01/23 08:12:04;;;;;;;5.90;3.33;;;20.20;39.90;;;;;;5091297;28;20400;-64
2022/01/23 08:14:29;;;;;;;5.30;3.40;;;20.20;38.80;;;;;;5094181;28;20419;-64
2022/01/23 08:16:55;;;;;;;5.10;3.20;;;20.20;39.80;;;;;;5092748;28;20374;-68
2022/01/23 08:19:21;;;;;;;6.27;3.40;;;20.30;39.30;;;;;;5091199;28;20599;-62
2022/01/23 08:21:46;;;;;;;6.78;3.10;;;20.30;38.20;;;;;;5091513;28;20856;-62
2022/01/23 08:24:14;;;;;;;4.87;2.93;;;20.30;39.00;;;;;;5091385;28;20841;-63
2022/01/23 08:26:39;;;;;;;7.13;3.10;;;20.30;38.30;;;;;;5091330;28;20904;-63
2022/01/23 08:29:06;;;;;;;5.15;2.90;;;20.30;38.40;;;;;;5091053;28;20406;-63
2022/01/23 08:31:31;;;;;;;7.63;2.65;;;20.30;38.40;;;;;;5091256;28;20490;-65
2022/01/23 08:33:57;;;;;;;6.88;2.60;;;20.30;38.10;;;;;;5091429;28;21176;-63
2022/01/23 08:36:23;;;;;;;5.33;2.50;;;20.30;38.00;;;;;;5073323;28;20386;-64
2022/01/23 08:38:48;;;;;;;7.38;3.00;;;20.30;38.20;;;;;;5072706;28;20841;-63
2022/01/23 08:43:49;;;;;;;7.88;2.70;;;20.40;38.70;;;;;;5071541;28;20387;-64
2022/01/23 08:46:15;;;;;;;4.82;2.42;;;20.40;38.50;;;;;;5071528;28;20392;-71
2022/01/23 08:48:41;;;;;;;5.40;2.20;;;20.40;37.80;;;;;;5071392;28;20490;-64
2022/01/23 08:51:08;;;;;;;6.55;2.58;;;20.50;37.80;;;;;;5070276;28;20437;-64
2022/01/23 08:53:34;;;;;;;9.35;2.35;;;20.50;37.70;;;;;;5071504;28;20435;-66
2022/01/23 08:56:00;;;;;;;6.80;2.40;;;20.50;37.60;;;;;;5071355;28;20420;-65
2022/01/23 08:58:26;;;;;;;4.47;2.25;;;20.50;37.10;;;;;;5071536;28;20384;-65
2022/01/23 09:00:52;;;;;;;5.00;2.20;;;20.50;37.10;;;;;;5071174;28;20395;-72
2022/01/23 09:03:17;;;;;;;4.77;2.10;;;20.40;36.70;;;;;;5069984;28;20380;-71
2022/01/23 09:05:43;;;;;;;4.60;2.40;;;20.40;36.50;;;;;;5071100;28;20396;-64
2022/01/23 09:08:08;;;;;;;5.53;2.20;;;20.40;36.30;;;;;;5070330;28;20487;-63
2022/01/23 09:10:53;;;;;;;4.95;2.10;;;20.40;36.10;;;;;;5069447;28;20469;-70
2022/01/23 09:13:40;;;;;;;4.70;2.33;;;20.40;35.80;;;;;;5069283;28;20436;-67
2022/01/23 09:16:07;;;;;;;5.47;2.10;;;20.40;36.00;;;;;;5086955;28;20389;-72
2022/01/23 09:18:34;;;;;;;5.40;2.20;;;20.40;35.70;;;;;;5090111;28;20473;-65
2022/01/23 09:20:59;;;;;;;5.70;2.10;;;20.40;35.70;;;;;;5091415;28;20401;-65
2022/01/23 09:23:25;;;;;;;3.30;2.17;;;20.40;35.60;;;;;;5090839;28;20386;-69
2022/01/23 09:25:51;;;;;;;5.45;2.33;;;20.40;35.60;;;;;;5090777;28;20844;-64
2022/01/23 09:28:19;;;;;;;3.40;2.20;;;20.40;35.40;;;;;;5091323;28;20858;-66
2022/01/23 09:30:50;;;;;;;3.85;2.13;;;20.40;35.40;;;;;;5091275;28;20405;-65
2022/01/23 09:33:17;;;;;;;3.88;2.00;;;20.40;35.20;;;;;;5092208;28;20382;-65
2022/01/23 09:35:43;;;;;;;3.50;2.08;;;20.40;35.20;;;;;;5090535;28;20476;-64
2022/01/23 09:38:08;;;;;;;3.20;2.10;;;20.40;35.20;;;;;;5089804;28;20469;-69
2022/01/23 09:40:39;;;;;;;4.80;2.03;;;20.40;35.10;;;;;;5090702;28;20389;-65
2022/01/23 09:43:15;;;;;;;4.00;2.08;;;20.40;35.10;;;;;;5089876;28;20397;-65
2022/01/23 09:45:44;;;;;;;4.00;2.13;;;20.40;35.00;;;;;;5090499;28;20394;-64
2022/01/23 09:48:11;;;;;;;4.45;2.10;;;20.40;35.00;;;;;;5090864;28;20401;-65
2022/01/23 09:50:42;;;;;;;4.10;2.00;;;20.40;35.00;;;;;;5090409;28;20426;-64
2022/01/23 09:53:08;;;;;;;2.75;1.90;;;20.40;34.90;;;;;;5091134;28;20390;-64
2022/01/23 09:55:35;;;;;;;5.27;2.00;;;20.40;34.80;;;;;;5090588;28;20480;-65
2022/01/23 09:58:01;;;;;;;5.07;2.20;;;20.30;34.80;;;;;;5089603;28;20482;-68
2022/01/23 10:00:28;;;;;;;3.40;1.92;;;20.40;34.80;;;;;;5089411;28;20409;-64
2022/01/23 10:02:55;;;;;;;3.17;1.90;;;20.30;34.80;;;;;;5090808;28;20377;-65
2022/01/23 10:05:21;;;;;;;3.13;2.10;;;20.30;34.80;;;;;;5090656;28;20393;-66
2022/01/23 10:07:47;;;;;;;3.92;1.85;;;20.30;34.70;;;;;;5091119;28;20421;-71
2022/01/23 10:10:19;;;;;;;2.58;1.98;;;20.30;34.60;;;;;;5091382;28;20413;-66
2022/01/23 10:12:51;;;;;;;3.10;1.80;;;20.30;34.60;;;;;;5089367;28;20943;-65
2022/01/23 10:15:18;;;;;;;2.40;1.80;;;20.30;34.50;;;;;;5087663;28;20742;-67
2022/01/23 10:17:45;;;;;;;3.00;1.75;;;20.40;34.40;;;;;;5083899;28;20491;-66
2022/01/23 10:20:12;;;;;;;3.33;1.67;;;20.40;34.40;;;;;;5086592;28;20386;-65
2022/01/23 10:22:41;;;;;;;4.68;1.85;;;20.30;34.60;;;;;;5088806;28;20389;-64
2022/01/23 10:25:10;;;;;;;2.83;1.88;;;20.40;34.80;;;;;;5087855;28;20398;-64
2022/01/23 10:28:07;;;;;;;3.80;1.88;;;20.40;34.60;;;;;;5089074;28;20381;-65
2022/01/23 10:30:40;;;;;;;5.27;2.10;;;20.40;34.50;;;;;;5086212;28;20420;-65
2022/01/23 10:33:15;;;;;;;3.65;1.80;;;20.40;34.40;;;;;;5089141;28;20394;-65
2022/01/23 10:35:55;;;;;;;3.00;1.80;;;20.40;34.40;;;;;;5088504;28;20413;-64
2022/01/23 10:38:23;;;;;;;2.30;1.60;;;20.30;34.30;;;;;;5086070;28;20390;-65
2022/01/23 10:40:55;;;;;;;3.67;1.55;;;20.40;34.30;;;;;;5089143;28;20386;-72
2022/01/23 10:48:45;;;;;;;2.83;1.65;;;20.40;34.20;;;;;;5088209;28;21109;-64
2022/01/23 10:51:31;;;;;;;3.53;1.60;;;20.30;34.10;;;;;;5087820;28;21000;-64
2022/01/23 10:54:01;;;;;;;2.53;1.63;;;20.40;34.20;;;;;;5090403;28;20390;-64
2022/01/23 10:56:31;;;;;;;2.42;1.50;;;20.40;34.10;;;;;;5092271;28;20409;-64
2022/01/23 10:59:17;;;;;;;2.28;1.55;;;20.40;34.10;;;;;;5090374;28;20401;-73
2022/01/23 11:02:08;;;;;;;2.13;1.52;;;20.40;34.00;;;;;;5089982;28;20398;-64
2022/01/23 11:04:49;;;;;;;2.55;1.67;;;20.40;34.00;;;;;;5091778;28;20861;-64
2022/01/23 11:07:15;;;;;;;2.75;1.60;;;20.40;33.80;;;;;;5091920;28;20409;-67
2022/01/23 11:09:41;;;;;;;2.20;1.57;;;20.40;33.90;;;;;;5092285;28;20503;-72
2022/01/23 11:12:23;;;;;;;2.63;1.80;;;20.40;34.30;;;;;;5092592;28;20382;-73
2022/01/23 11:17:51;;;;;;;2.97;2.00;;;20.40;35.30;;;;;;5090862;28;20393;-64
2022/01/23 11:20:29;;;;;;;4.40;2.13;;;20.50;35.60;;;;;;5092188;28;20451;-65
2022/01/23 11:23:13;;;;;;;4.45;2.00;;;20.60;36.00;;;;;;5091720;28;20481;-64
2022/01/23 11:25:41;;;;;;;4.57;1.90;;;20.80;35.40;;;;;;5090468;28;20796;-65
2022/01/23 11:28:07;;;;;;;4.10;2.13;;;20.90;35.80;;;;;;5089296;28;20398;-71
2022/01/23 11:30:40;;;;;;;4.05;2.20;;;21.00;36.00;;;;;;5091602;28;20418;-71
2022/01/23 11:33:09;;;;;;;3.92;1.77;;;21.10;36.60;;;;;;5090023;28;20390;-65
2022/01/23 11:35:35;;;;;;;3.45;1.80;;;21.10;36.00;;;;;;5091840;28;20386;-69
2022/01/23 11:38:01;;;;;;;3.03;1.70;;;21.20;35.40;;;;;;5088701;28;20401;-64
2022/01/23 11:50:40;;;;;;;2.88;1.70;;;21.30;35.50;;;;;;5089709;28;20390;-65
2022/01/23 11:54:41;;;;;;;2.83;1.80;;;21.50;35.40;;;;;;5091193;28;20830;-68
2022/01/23 11:57:41;;;;;;;5.40;2.00;;;21.60;36.50;;;;;;5090397;28;20413;-66
2022/01/23 12:00:15;;;;;;;3.55;2.00;;;21.60;36.70;;;;;;5089671;28;20470;-66
2022/01/23 12:02:43;;;;;;;3.92;2.13;;;21.70;36.80;;;;;;5090360;28;20386;-68
2022/01/23 12:05:19;;;;;;;3.40;2.40;;;21.80;36.80;;;;;;5092059;28;20801;-65
2022/01/23 12:08:07;;;;;;;6.88;2.42;;;21.80;36.70;;;;;;5086856;28;20451;-64
2022/01/23 12:10:49;;;;;;;4.40;3.15;;;21.90;36.90;;;;;;5089948;28;20475;-67
2022/01/23 12:13:55;;;;;;;4.35;2.90;;;21.90;36.50;;;;;;5089505;28;20405;-70
2022/01/23 12:16:33;;;;;;;5.95;3.28;;;22.00;36.90;;;;;;5089960;28;20755;-73
2022/01/23 12:19:19;;;;;;;5.13;3.70;;;22.00;36.10;;;;;;5089353;28;20894;-65
2022/01/23 12:21:46;;;;;;;6.97;3.70;;;22.10;36.70;;;;;;5081294;28;20447;-65
2022/01/23 12:24:15;;;;;;;5.95;3.78;;;22.20;37.50;;;;;;5088930;28;20383;-69
2022/01/23 12:26:47;;;;;;;9.50;4.03;;;22.20;37.60;;;;;;5088772;28;20447;-65
2022/01/23 12:29:33;;;;;;;6.63;4.22;;;22.20;38.80;;;;;;5090898;28;20412;-65
2022/01/23 12:32:19;;;;;;;8.57;4.20;;;22.30;40.40;;;;;;5088640;28;20418;-66
2022/01/23 12:34:47;;;;;;;8.02;3.92;;;22.40;40.80;;;;;;5090064;28;20424;-66
2022/01/23 12:37:13;;;;;;;5.90;3.78;;;22.40;40.60;;;;;;5091286;28;20382;-66
2022/01/23 12:39:39;;;;;;;5.68;3.45;;;22.40;40.70;;;;;;5090093;28;20482;-67
2022/01/23 12:42:05;;;;;;;9.43;3.70;;;22.40;40.80;;;;;;5090239;28;20520;-65
2022/01/23 12:44:36;;;;;;;5.72;3.42;;;22.40;40.20;;;;;;5089313;28;20890;-66
2022/01/23 12:47:16;;;;;;;6.80;3.40;;;22.50;39.90;;;;;;5090267;28;20414;-69
2022/01/23 12:49:52;;;;;;;4.68;3.50;;;22.50;40.10;;;;;;5088280;28;20427;-65
2022/01/23 12:52:21;;;;;;;7.03;3.67;;;22.50;39.60;;;;;;5089399;28;20390;-65
2022/01/23 12:54:47;;;;;;;7.88;3.38;;;22.60;39.40;;;;;;5090748;28;20387;-72
2022/01/23 12:57:23;;;;;;;8.33;3.57;;;22.60;39.40;;;;;;5090843;28;20499;-71
2022/01/23 12:59:58;;;;;;;6.72;3.30;;;22.60;40.40;;;;;;5090212;28;20378;-65
2022/01/23 13:02:28;;;;;;;5.30;3.33;;;22.70;39.90;;;;;;5090748;28;20393;-72
2022/01/23 13:04:55;;;;;;;6.00;4.78;;;22.70;39.90;;;;;;5091253;28;20480;-71
2022/01/23 13:07:41;;;;;;;5.88;4.22;;;23.10;39.60;;;;;;5089177;28;20393;-65
2022/01/23 13:13:17;;;;;;;4.40;3.70;;;23.20;37.90;;;;;;5090979;28;20780;-65
2022/01/23 13:16:02;;;;;;;5.07;3.88;;;23.20;38.20;;;;;;5088139;28;21026;-66
2022/01/23 13:32:10;;;;;;;6.90;2.80;;;23.10;42.20;;;;;;5089911;28;20471;-73
2022/01/23 13:34:40;;;;;;;7.82;2.60;;;23.00;41.30;;;;;;5086547;28;20473;-66
2022/01/23 13:37:11;;;;;;;4.05;2.50;;;22.90;40.50;;;;;;5087041;28;20487;-65
2022/01/23 13:39:47;;;;;;;4.63;2.60;;;22.90;39.90;;;;;;5086352;28;20386;-66
2022/01/23 13:54:16;;;;;;;2.85;2.10;;;22.50;38.60;;;;;;5088818;28;20404;-71
2022/01/23 13:59:49;;;;;;;2.45;1.80;;;22.40;36.80;;;;;;5088314;28;20390;-63
2022/01/23 14:02:27;;;;;;;2.80;1.80;;;22.40;35.90;;;;;;5086613;28;20394;-63
2022/01/23 14:04:56;;;;;;;4.13;2.10;;;22.30;35.40;;;;;;5086434;28;20402;-70
2022/01/23 14:07:26;;;;;;;2.30;1.70;;;22.30;35.20;;;;;;5087984;28;20947;-63
2022/01/23 14:09:55;;;;;;;2.75;1.70;;;22.30;35.20;;;;;;5087873;28;20413;-69
2022/01/23 14:12:21;;;;;;;2.30;1.73;;;22.20;34.40;;;;;;5086636;28;20422;-67
2022/01/23 14:15:07;;;;;;;2.60;1.80;;;22.20;35.10;;;;;;5088107;28;20402;-72
2022/01/23 14:17:39;;;;;;;2.30;1.52;;;22.20;34.90;;;;;;5087616;28;20378;-68
2022/01/23 14:20:14;;;;;;;2.30;1.50;;;22.10;34.80;;;;;;5087598;28;20419;-72
2022/01/23 14:22:43;;;;;;;2.42;1.50;;;22.10;34.70;;;;;;5087470;28;20438;-72
2022/01/23 14:25:18;;;;;;;2.30;1.40;;;22.10;34.80;;;;;;5087438;28;20425;-65
2022/01/23 14:28:07;;;;;;;1.98;1.52;;;22.10;35.00;;;;;;5090257;28;20394;-71
2022/01/23 14:30:40;;;;;;;2.08;1.50;;;22.00;35.10;;;;;;5090221;28;20424;-64
2022/01/23 14:33:21;;;;;;;2.13;1.70;;;22.10;35.20;;;;;;5090715;28;20386;-68
2022/01/23 14:35:47;;;;;;;2.90;1.70;;;22.00;35.90;;;;;;5091355;28;20890;-67
2022/01/23 14:38:21;;;;;;;3.60;1.63;;;22.00;36.20;;;;;;5091824;28;20431;-64
2022/01/23 14:41:10;;;;;;;2.92;1.40;;;22.00;36.60;;;;;;5092857;28;20457;-68
2022/01/23 14:43:39;;;;;;;2.17;1.50;;;22.00;36.40;;;;;;5080031;28;20746;-66
2022/01/23 14:46:07;;;;;;;2.90;1.50;;;22.00;36.40;;;;;;5092660;28;20439;-65
2022/01/23 14:48:39;;;;;;;4.10;1.70;;;22.00;36.20;;;;;;5090128;28;20394;-63
2022/01/23 14:51:06;;;;;;;3.67;1.70;;;21.90;36.40;;;;;;5092510;28;20422;-64
2022/01/23 14:53:36;;;;;;;3.83;1.70;;;21.90;36.40;;;;;;5089580;28;20478;-63
2022/01/23 14:56:04;;;;;;;3.50;1.70;;;21.80;35.80;;;;;;5091736;28;20439;-64
2022/01/23 14:58:33;;;;;;;3.53;1.55;;;21.80;36.20;;;;;;5094792;28;20792;-64
2022/01/23 15:00:59;;;;;;;3.30;1.80;;;21.90;37.50;;;;;;5093324;28;20406;-69
2022/01/23 15:03:27;;;;;;;7.05;2.10;;;21.90;37.60;;;;;;5093236;28;21198;-69
2022/01/23 15:05:53;;;;;;;4.97;2.38;;;21.90;39.10;;;;;;5088824;28;20412;-72
2022/01/23 15:08:22;;;;;;;6.18;2.05;;;22.00;38.80;;;;;;5092717;28;20425;-64
2022/01/23 15:10:50;;;;;;;9.48;2.20;;;22.00;39.40;;;;;;5091773;28;20426;-67
2022/01/23 15:13:16;;;;;;;6.70;2.22;;;21.90;40.10;;;;;;5092672;28;20929;-64
2022/01/23 15:15:42;;;;;;;8.00;2.10;;;22.00;39.60;;;;;;5091661;28;20387;-68
2022/01/23 15:18:09;;;;;;;6.32;2.20;;;22.00;39.40;;;;;;5089956;28;20402;-71
2022/01/23 15:20:35;;;;;;;8.85;2.10;;;22.00;38.50;;;;;;5091889;28;20390;-64
2022/01/23 15:23:05;;;;;;;6.17;1.80;;;22.00;38.30;;;;;;5090762;28;20484;-65
2022/01/23 15:25:31;;;;;;;3.97;1.58;;;22.10;38.00;;;;;;5089964;28;20905;-68
2022/01/23 15:27:57;;;;;;;3.83;1.75;;;22.20;37.70;;;;;;5088070;28;20382;-63
2022/01/23 15:30:24;;;;;;;4.97;1.73;;;22.20;37.50;;;;;;5089765;28;20447;-68
2022/01/23 15:32:51;;;;;;;3.47;1.80;;;22.30;37.30;;;;;;5091288;28;20382;-70
2022/01/23 15:35:18;;;;;;;5.97;1.80;;;22.30;36.90;;;;;;5088244;28;20382;-70
2022/01/23 15:37:44;;;;;;;4.13;1.80;;;22.30;37.00;;;;;;5090400;28;20394;-68
2022/01/23 15:40:12;;;;;;;4.28;1.80;;;22.30;37.00;;;;;;5090569;28;20398;-64
2022/01/23 15:42:39;;;;;;;3.50;1.88;;;22.40;37.00;;;;;;5089449;28;20370;-71
2022/01/23 15:45:06;;;;;;;4.75;2.00;;;22.40;36.90;;;;;;5091212;28;20402;-71
2022/01/23 15:47:33;;;;;;;2.88;1.70;;;22.50;37.10;;;;;;5088972;28;20909;-64
2022/01/23 15:49:58;;;;;;;3.10;1.70;;;22.40;37.00;;;;;;5088687;28;20451;-69
2022/01/23 15:52:24;;;;;;;3.37;1.80;;;22.50;36.90;;;;;;5090801;28;20382;-68
2022/01/23 15:54:50;;;;;;;2.83;1.80;;;22.50;36.90;;;;;;5089305;28;20405;-63
2022/01/23 15:57:16;;;;;;;3.45;1.77;;;22.50;36.70;;;;;;5089432;28;20382;-69
2022/01/23 15:59:42;;;;;;;3.20;1.60;;;22.50;36.80;;;;;;5090847;28;20390;-68
2022/01/23 16:02:08;;;;;;;3.73;1.90;;;22.50;36.70;;;;;;5089165;28;20402;-72
2022/01/23 16:04:37;;;;;;;3.47;1.85;;;22.50;36.70;;;;;;5090710;28;20496;-62
2022/01/23 16:07:04;;;;;;;3.22;1.70;;;22.50;36.70;;;;;;5090564;28;20469;-62
2022/01/23 16:09:30;;;;;;;3.03;1.70;;;22.50;36.70;;;;;;5090595;28;20428;-72
2022/01/23 16:11:56;;;;;;;3.78;1.98;;;22.50;36.70;;;;;;5087579;28;20386;-70
2022/01/23 16:14:22;;;;;;;3.63;1.92;;;22.60;36.60;;;;;;5089562;28;20489;-69
2022/01/23 16:16:49;;;;;;;3.87;1.90;;;22.60;36.50;;;;;;5091484;28;20953;-64
2022/01/23 16:19:14;;;;;;;3.50;1.98;;;22.60;36.10;;;;;;5089252;28;20394;-71
2022/01/23 16:21:41;;;;;;;4.65;2.10;;;22.60;35.90;;;;;;5090428;28;20455;-64
2022/01/23 16:24:07;;;;;;;4.20;2.10;;;22.60;36.00;;;;;;5089879;28;20535;-64
2022/01/23 16:26:33;;;;;;;4.18;2.22;;;22.60;35.60;;;;;;5089406;28;20398;-72
2022/01/23 16:28:59;;;;;;;3.20;2.03;;;22.60;35.70;;;;;;5090101;28;20401;-63
2022/01/23 16:31:25;;;;;;;3.97;2.00;;;22.60;36.10;;;;;;5091565;28;20390;-69
2022/01/23 16:33:51;;;;;;;3.43;2.20;;;22.50;36.00;;;;;;5091045;28;20409;-71
2022/01/23 16:36:17;;;;;;;4.55;2.22;;;22.60;35.80;;;;;;5089756;28;20393;-65